Time;durP1;ratioP1;P1;durP2;ratioP2;P2;SDS_P1;SDS_P2;PMS_P1;PMS_P2;Temp;Humidity;BMP_temperature;BMP_pressure;BME280_temperature;BME280_humidity;BME280_pressure;Samples;Min_cycle;Max_cycle;Signal;HPM_P1;HPM_P2
2021/04/02 00:00:14;;;;;;;67.95;28.75;;;14.70;60.50;;;13.73;52.17;98576.97;5060295;28;20514;-78
2021/04/02 00:02:42;;;;;;;61.00;28.83;;;14.60;60.80;;;13.72;52.41;98578.03;5078422;28;20430;-78
2021/04/02 00:05:12;;;;;;;61.00;28.85;;;14.50;61.00;;;13.73;52.27;98581.50;5078319;28;20498;-77
2021/04/02 00:07:38;;;;;;;66.82;28.67;;;14.50;61.00;;;13.63;52.70;98573.34;5077628;28;20423;-76
2021/04/02 00:10:07;;;;;;;72.55;29.00;;;14.50;61.40;;;13.52;52.89;98578.50;5078977;28;20410;-77
2021/04/02 00:12:34;;;;;;;76.78;29.88;;;14.40;61.70;;;13.42;53.09;98572.19;5063480;28;20412;-77
2021/04/02 00:15:01;;;;;;;67.15;30.17;;;14.30;62.20;;;13.33;53.48;98579.75;5080382;28;20403;-78
2021/04/02 00:17:27;;;;;;;75.22;30.05;;;14.20;62.50;;;13.18;54.09;98576.81;5058633;28;20510;-77
2021/04/02 00:19:53;;;;;;;68.55;31.35;;;14.10;63.20;;;13.17;54.18;98575.22;5076408;28;20404;-78
2021/04/02 00:22:19;;;;;;;68.70;31.05;;;14.00;63.40;;;13.06;54.58;98562.75;5076262;28;20431;-78
2021/04/02 00:24:45;;;;;;;64.22;32.08;;;14.00;63.80;;;13.05;54.73;98574.44;5076592;28;20796;-78
2021/04/02 00:27:11;;;;;;;68.18;32.92;;;13.90;64.10;;;13.08;54.61;98569.44;5076829;28;20412;-77
2021/04/02 00:29:38;;;;;;;70.05;32.78;;;13.90;64.20;;;13.14;54.47;98568.53;5077319;28;20422;-78
2021/04/02 00:32:05;;;;;;;74.75;33.45;;;14.00;64.00;;;13.16;54.27;98569.09;5058243;28;20415;-77
2021/04/02 00:34:31;;;;;;;68.55;35.08;;;14.00;63.80;;;13.14;54.43;98573.03;5076572;28;20404;-77
2021/04/02 00:36:57;;;;;;;66.03;32.97;;;14.00;64.00;;;13.12;54.44;98573.25;5081384;28;20408;-79
2021/04/02 00:39:23;;;;;;;64.63;34.38;;;14.00;64.10;;;13.11;54.60;98571.63;5080197;28;20419;-79
2021/04/02 00:41:49;;;;;;;74.53;34.17;;;13.90;64.10;;;12.94;55.12;98573.41;5059629;28;20427;-78
2021/04/02 00:44:15;;;;;;;68.50;35.45;;;13.90;64.50;;;12.92;55.25;98564.91;5077541;28;20404;-78
2021/04/02 00:46:42;;;;;;;67.97;34.88;;;13.80;64.90;;;12.93;55.15;98571.81;5076043;28;20407;-78
2021/04/02 00:49:12;;;;;;;72.57;35.00;;;13.70;65.00;;;12.92;55.32;98564.91;5076931;28;20414;-79
2021/04/02 00:51:38;;;;;;;75.60;35.13;;;13.80;65.00;;;12.87;55.42;98561.31;5078567;28;20423;-78
2021/04/02 00:54:05;;;;;;;72.95;35.75;;;13.70;65.20;;;12.77;55.78;98562.75;5062219;28;20418;-79
2021/04/02 00:56:31;;;;;;;68.80;35.90;;;13.70;65.50;;;12.70;55.98;98570.06;5076814;28;20480;-78
2021/04/02 00:58:57;;;;;;;68.95;35.15;;;13.60;65.80;;;12.63;56.31;98564.03;5078041;28;20483;-78
2021/04/02 01:01:23;;;;;;;70.13;34.40;;;13.50;66.20;;;12.47;56.93;98562.13;5076947;28;20411;-78
2021/04/02 01:03:52;;;;;;;70.43;35.30;;;13.40;66.70;;;12.44;56.84;98561.78;5077423;28;20408;-78
2021/04/02 01:06:22;;;;;;;66.32;34.95;;;13.40;67.10;;;12.46;57.02;98571.16;5077168;28;20407;-78
2021/04/02 01:08:49;;;;;;;67.53;35.65;;;13.30;67.30;;;12.50;56.89;98574.13;5077991;28;20423;-78
2021/04/02 01:11:18;;;;;;;69.80;36.33;;;13.40;67.00;;;12.55;56.53;98575.06;5077780;28;20419;-78
2021/04/02 01:13:47;;;;;;;62.17;31.48;;;13.40;66.80;;;12.47;56.78;98574.63;5077639;28;20449;-78
2021/04/02 01:16:15;;;;;;;69.57;34.47;;;13.40;66.60;;;12.47;56.71;98578.06;5077432;28;20472;-78
2021/04/02 01:18:48;;;;;;;71.70;33.33;;;13.30;66.80;;;12.37;57.05;98569.88;5085586;28;20759;-78
2021/04/02 01:21:23;;;;;;;68.07;32.33;;;13.30;67.10;;;12.35;57.18;98572.78;5083466;28;25103;-78
2021/04/02 01:24:17;;;;;;;63.30;32.60;;;13.20;67.20;;;12.34;56.97;98573.81;5083289;28;20592;-78
2021/04/02 01:27:04;;;;;;;59.92;30.70;;;13.20;67.80;;;12.43;56.63;98570.78;5085462;28;20567;-78
2021/04/02 01:29:41;;;;;;;58.30;29.77;;;13.30;66.80;;;12.47;56.27;98569.31;5080266;28;20410;-78
2021/04/02 01:32:13;;;;;;;53.07;29.03;;;13.30;66.50;;;12.30;56.94;98570.00;5076198;28;25120;-78
2021/04/02 01:34:44;;;;;;;59.47;29.48;;;13.30;66.80;;;12.20;57.27;98571.63;5076262;28;20442;-78
2021/04/02 01:37:21;;;;;;;60.27;29.63;;;13.10;67.30;;;12.08;57.76;98579.59;5058473;28;20453;-79
2021/04/02 01:39:49;;;;;;;61.35;31.73;;;13.00;67.80;;;11.91;58.30;98574.19;5077824;28;20406;-79
2021/04/02 01:42:20;;;;;;;63.50;29.98;;;12.90;68.50;;;11.91;58.37;98584.78;5076461;28;20535;-79
2021/04/02 01:44:51;;;;;;;56.92;29.65;;;12.80;68.90;;;11.95;57.97;98579.84;5077325;28;20404;-79
2021/04/02 01:47:19;;;;;;;53.22;28.25;;;12.80;68.50;;;11.96;57.72;98582.25;5076479;28;20811;-79
2021/04/02 01:49:47;;;;;;;59.67;28.42;;;12.80;68.10;;;11.81;58.37;98589.84;5077020;28;20409;-77
2021/04/02 01:52:14;;;;;;;56.03;28.38;;;12.70;68.70;;;11.71;58.69;98588.78;5075721;28;20481;-79
2021/04/02 01:54:42;;;;;;;60.20;28.70;;;12.60;69.10;;;11.79;58.52;98591.13;5076920;28;20401;-79
2021/04/02 01:57:10;;;;;;;55.03;28.70;;;12.60;68.90;;;11.89;58.18;98591.34;5059042;28;20439;-79
2021/04/02 01:59:37;;;;;;;51.17;28.23;;;12.70;68.80;;;11.74;58.58;98589.16;5076463;28;20401;-79
2021/04/02 02:02:06;;;;;;;57.43;27.97;;;12.70;68.80;;;11.74;58.26;98586.50;5076751;28;20426;-79
2021/04/02 02:04:35;;;;;;;55.47;27.52;;;12.60;68.90;;;11.64;58.55;98586.25;5076454;28;20805;-78
2021/04/02 02:07:03;;;;;;;50.63;26.40;;;12.60;69.10;;;11.56;58.76;98590.03;5076011;28;20416;-79
2021/04/02 02:09:38;;;;;;;51.73;26.40;;;12.50;69.20;;;11.62;58.36;98590.94;5078884;28;20497;-79
2021/04/02 02:12:10;;;;;;;42.47;22.33;;;12.50;69.10;;;11.57;58.10;98593.50;5080315;28;25125;-78
2021/04/02 02:14:38;;;;;;;49.03;23.75;;;12.50;68.60;;;11.45;58.64;98596.09;5080965;28;20728;-79
2021/04/02 02:17:11;;;;;;;44.25;23.73;;;12.40;69.10;;;11.53;58.49;98597.63;5079667;28;20454;-79
2021/04/02 02:19:40;;;;;;;42.00;22.02;;;12.40;69.00;;;11.51;58.32;98597.03;5080897;28;20426;-79
2021/04/02 02:22:10;;;;;;;43.77;22.33;;;12.40;68.80;;;11.30;58.91;98590.41;5079184;28;20899;-79
2021/04/02 02:24:37;;;;;;;48.80;22.37;;;12.30;69.40;;;11.20;59.25;98596.25;5079884;28;20431;-76
2021/04/02 02:27:06;;;;;;;46.47;22.08;;;12.20;69.80;;;11.18;59.40;98595.69;5080387;28;20411;-79
2021/04/02 02:29:33;;;;;;;42.63;22.40;;;12.10;70.30;;;11.25;59.07;98595.59;5079904;28;21008;-79
2021/04/02 02:32:00;;;;;;;40.08;20.88;;;12.20;70.00;;;11.08;59.63;98595.41;5078957;28;20865;-79
2021/04/02 02:34:28;;;;;;;44.25;21.83;;;12.10;70.40;;;11.11;59.60;98594.97;5079398;28;20642;-78
2021/04/02 02:36:54;;;;;;;40.47;21.33;;;12.00;70.50;;;11.00;59.61;98592.25;5079085;28;20410;-78
2021/04/02 02:39:21;;;;;;;40.40;20.38;;;12.00;70.50;;;10.97;59.66;98596.19;5079441;28;20403;-78
2021/04/02 02:41:47;;;;;;;40.37;20.47;;;11.90;70.80;;;10.95;59.66;98594.78;5078878;28;20499;-78
2021/04/02 02:44:14;;;;;;;35.92;17.98;;;11.90;70.60;;;10.96;59.49;98593.75;5080640;28;21058;-78
2021/04/02 02:46:40;;;;;;;40.22;18.52;;;11.90;70.60;;;10.87;59.66;98593.25;5081559;28;21046;-78
2021/04/02 02:49:11;;;;;;;35.00;16.35;;;11.80;70.50;;;10.66;60.37;98599.00;5081132;28;20426;-78
2021/04/02 02:51:41;;;;;;;34.72;17.55;;;11.60;71.00;;;10.75;60.01;98605.63;5081063;28;20494;-78
2021/04/02 02:54:12;;;;;;;34.53;17.13;;;11.60;71.10;;;10.70;59.90;98608.09;5082864;28;20432;-78
2021/04/02 02:56:41;;;;;;;31.65;15.20;;;11.70;71.00;;;10.63;60.13;98605.53;5080205;28;20437;-78
2021/04/02 02:59:15;;;;;;;35.97;17.05;;;11.60;71.00;;;10.62;60.47;98598.63;5079499;28;20433;-78
2021/04/02 03:01:42;;;;;;;31.27;16.92;;;11.60;71.40;;;10.72;60.01;98601.56;5080858;28;20434;-78
2021/04/02 03:04:10;;;;;;;28.00;15.60;;;11.60;71.10;;;10.61;60.16;98598.84;5081719;28;20428;-78
2021/04/02 03:06:40;;;;;;;29.52;15.45;;;11.60;71.20;;;10.43;61.01;98604.97;5081266;28;20845;-78
2021/04/02 03:09:09;;;;;;;36.17;17.38;;;11.40;72.00;;;10.37;61.55;98600.53;5062725;28;20533;-78
2021/04/02 03:11:36;;;;;;;37.92;18.92;;;11.30;72.70;;;10.27;62.40;98594.94;5078590;28;20416;-78
2021/04/02 03:14:04;;;;;;;41.83;19.98;;;11.20;73.20;;;10.22;62.83;98603.53;5079655;28;20422;-78
2021/04/02 03:16:31;;;;;;;40.00;18.58;;;11.20;73.70;;;10.16;62.57;98596.44;5078705;28;20406;-78
2021/04/02 03:18:59;;;;;;;35.95;18.05;;;11.10;74.00;;;10.02;62.35;98601.03;5079434;28;20513;-78
2021/04/02 03:21:26;;;;;;;35.38;16.75;;;11.00;73.70;;;10.06;61.95;98604.06;5061326;28;20423;-78
2021/04/02 03:23:54;;;;;;;33.00;16.58;;;11.00;73.40;;;10.06;61.79;98604.06;5079661;28;20453;-78
2021/04/02 03:26:21;;;;;;;33.60;17.17;;;11.00;73.40;;;10.13;61.25;98601.38;5079055;28;20806;-78
2021/04/02 03:28:53;;;;;;;32.58;16.20;;;11.10;72.80;;;10.02;61.56;98600.22;5078436;28;20522;-78
2021/04/02 03:31:22;;;;;;;33.13;15.77;;;11.00;72.60;;;9.94;61.37;98605.78;5078396;28;20529;-78
2021/04/02 03:33:51;;;;;;;28.40;14.70;;;10.90;72.40;;;9.89;60.47;98608.28;5080359;28;20399;-78
2021/04/02 03:36:20;;;;;;;29.10;14.07;;;10.90;71.70;;;9.85;60.77;98607.13;5082331;28;20442;-78
2021/04/02 03:38:49;;;;;;;24.58;12.98;;;10.80;71.70;;;9.94;59.90;98613.72;5086237;28;20454;-78
2021/04/02 03:41:22;;;;;;;25.58;13.20;;;10.90;71.00;;;9.89;60.12;98609.09;5079399;28;20415;-78
2021/04/02 03:43:50;;;;;;;28.42;13.90;;;10.90;71.00;;;9.66;60.97;98611.50;5060780;28;20589;-78
2021/04/02 03:46:19;;;;;;;25.45;13.23;;;10.60;72.00;;;9.49;61.00;98605.94;5077984;28;20408;-78
2021/04/02 03:48:48;;;;;;;27.10;14.65;;;10.50;72.30;;;9.46;61.46;98619.59;5078304;28;20430;-78
2021/04/02 03:51:21;;;;;;;26.67;12.27;;;10.40;72.70;;;9.27;59.94;98620.50;5060319;28;20744;-78
2021/04/02 03:53:53;;;;;;;20.57;11.23;;;10.30;71.00;;;9.26;59.13;98621.53;5078171;28;20491;-79
2021/04/02 03:56:26;;;;;;;23.98;11.73;;;10.20;70.00;;;9.29;59.34;98619.28;5077589;28;20423;-77
2021/04/02 03:58:54;;;;;;;24.40;11.02;;;10.30;70.10;;;9.11;58.88;98621.81;5077836;28;20449;-79
2021/04/02 04:01:24;;;;;;;22.02;11.02;;;10.20;69.30;;;9.02;59.24;98615.16;5075904;28;20517;-78
2021/04/02 04:03:55;;;;;;;21.70;10.40;;;10.00;70.00;;;9.04;59.01;98622.88;5077114;28;20419;-78
2021/04/02 04:06:23;;;;;;;22.48;10.00;;;10.00;69.70;;;8.85;58.69;98622.75;5076535;28;20445;-78
2021/04/02 04:08:53;;;;;;;21.17;9.07;;;9.90;69.10;;;8.86;58.16;98618.28;5077268;28;20446;-78
2021/04/02 04:11:24;;;;;;;20.80;9.00;;;9.80;69.10;;;8.96;57.65;98623.91;5077838;28;20412;-78
2021/04/02 04:13:53;;;;;;;17.05;8.27;;;9.90;68.40;;;9.00;56.71;98621.69;5078704;28;20463;-79
2021/04/02 04:16:22;;;;;;;15.88;7.53;;;10.00;67.00;;;8.83;56.24;98624.78;5078099;28;20466;-78
2021/04/02 04:18:54;;;;;;;19.20;7.32;;;10.00;66.50;;;8.71;56.51;98625.66;5060749;28;20489;-78
2021/04/02 04:21:22;;;;;;;14.27;6.15;;;9.80;66.70;;;8.47;55.70;98625.31;5078011;28;20419;-78
2021/04/02 04:23:49;;;;;;;13.98;6.20;;;9.60;65.70;;;8.63;55.90;98625.88;5078369;28;20423;-78
2021/04/02 04:26:18;;;;;;;15.35;6.35;;;9.60;66.10;;;8.38;56.50;98628.38;5077452;28;20447;-77
2021/04/02 04:28:51;;;;;;;13.20;6.50;;;9.50;66.30;;;8.29;56.11;98622.47;5077964;28;20494;-78
2021/04/02 04:31:20;;;;;;;9.65;5.50;;;9.40;66.30;;;8.13;55.66;98630.81;5076527;28;20908;-78
2021/04/02 04:33:47;;;;;;;9.10;4.50;;;9.20;65.60;;;8.12;54.99;98637.91;5077155;28;20414;-78
2021/04/02 04:36:15;;;;;;;10.80;4.63;;;9.20;65.10;;;8.01;55.58;98630.63;5077650;28;20814;-78
2021/04/02 04:38:43;;;;;;;10.77;4.97;;;9.00;65.70;;;7.95;55.38;98639.38;5077940;28;20442;-78
2021/04/02 04:41:11;;;;;;;17.30;4.78;;;8.90;65.60;;;7.92;55.21;98631.03;5077462;28;20423;-78
2021/04/02 04:43:39;;;;;;;10.45;4.50;;;8.90;64.90;;;7.71;54.82;98638.13;5077405;28;20604;-78
2021/04/02 04:46:06;;;;;;;9.98;4.28;;;8.80;64.30;;;7.71;54.97;98637.31;5076285;28;20434;-78
2021/04/02 04:48:32;;;;;;;9.23;3.67;;;8.70;64.90;;;7.65;54.68;98641.59;5074501;28;20402;-78
2021/04/02 04:50:59;;;;;;;10.32;4.28;;;8.70;64.50;;;7.71;54.17;98632.06;5073860;28;20503;-78
2021/04/02 04:53:28;;;;;;;8.80;3.58;;;8.70;64.10;;;7.49;54.32;98628.78;5074874;28;20434;-78
2021/04/02 04:55:59;;;;;;;9.80;3.60;;;8.60;63.80;;;7.44;54.55;98625.94;5073720;28;20960;-78
2021/04/02 04:58:30;;;;;;;9.23;4.03;;;8.50;64.30;;;7.52;54.19;98628.38;5075673;28;20658;-78
2021/04/02 05:00:57;;;;;;;10.70;3.88;;;8.60;64.00;;;7.50;54.29;98629.59;5076366;28;20399;-78
2021/04/02 05:03:26;;;;;;;7.32;3.60;;;8.50;64.00;;;7.38;54.64;98627.53;5076492;28;20666;-78
2021/04/02 05:05:56;;;;;;;11.33;3.50;;;8.50;64.10;;;7.29;54.40;98626.09;5076188;28;20407;-78
2021/04/02 05:08:33;;;;;;;7.60;3.38;;;8.40;64.00;;;7.19;54.61;98628.31;5076304;28;20443;-78
2021/04/02 05:11:00;;;;;;;7.70;3.63;;;8.30;64.20;;;7.20;54.62;98629.94;5074466;28;20407;-78
2021/04/02 05:13:32;;;;;;;7.63;2.67;;;8.20;64.50;;;7.01;55.20;98635.94;5075095;28;20423;-78
2021/04/02 05:15:59;;;;;;;8.23;3.10;;;8.10;64.70;;;7.11;54.82;98635.59;5074631;28;20421;-78
2021/04/02 05:18:29;;;;;;;10.45;3.80;;;8.10;64.40;;;7.08;54.71;98641.25;5075303;28;20499;-78
2021/04/02 05:20:55;;;;;;;6.35;3.20;;;8.10;64.30;;;7.17;54.38;98648.78;5074673;28;20407;-78
2021/04/02 05:23:21;;;;;;;6.65;3.40;;;8.20;64.20;;;7.18;54.38;98646.94;5075270;28;20431;-77
2021/04/02 05:25:47;;;;;;;6.72;3.30;;;8.20;63.90;;;7.15;54.47;98649.97;5075963;28;20407;-77
2021/04/02 05:28:14;;;;;;;6.35;3.15;;;8.20;64.20;;;7.13;54.54;98649.38;5076320;28;20407;-77
2021/04/02 05:30:40;;;;;;;7.63;3.30;;;8.20;64.20;;;7.14;54.75;98654.41;5076899;28;20773;-78
2021/04/02 05:33:06;;;;;;;10.55;3.75;;;8.20;64.70;;;7.05;55.08;98654.81;5078231;28;20480;-78
2021/04/02 05:35:33;;;;;;;8.63;3.40;;;8.10;64.70;;;7.22;54.65;98656.06;5078718;28;20399;-77
2021/04/02 05:38:00;;;;;;;11.73;3.45;;;8.20;64.60;;;7.29;54.74;98657.72;5079538;28;20443;-77
2021/04/02 05:40:27;;;;;;;8.45;3.50;;;8.30;64.60;;;7.27;54.76;98661.56;5081155;28;20411;-78
2021/04/02 05:43:01;;;;;;;11.85;4.40;;;8.30;64.60;;;7.23;55.04;98663.78;5085556;28;20418;-78
2021/04/02 05:45:30;;;;;;;9.27;3.72;;;8.30;64.80;;;7.27;55.16;98672.09;5088714;28;20379;-78
2021/04/02 05:48:00;;;;;;;9.82;3.63;;;8.30;64.80;;;7.25;55.32;98666.22;5084600;28;20415;-78
2021/04/02 05:50:29;;;;;;;11.20;3.83;;;8.30;64.90;;;7.38;55.07;98674.16;5064872;28;20423;-78
2021/04/02 05:53:04;;;;;;;10.30;3.45;;;8.40;65.00;;;7.56;54.77;98673.59;5078662;28;20414;-78
2021/04/02 05:55:34;;;;;;;7.95;3.67;;;8.50;64.60;;;7.23;55.92;98673.50;5078482;28;20880;-78
2021/04/02 05:58:02;;;;;;;10.82;4.15;;;8.30;65.40;;;7.14;56.19;98669.44;5076457;28;20431;-77
2021/04/02 06:00:28;;;;;;;10.57;4.63;;;8.20;66.20;;;7.33;55.83;98666.84;5059130;28;20395;-78
2021/04/02 06:02:57;;;;;;;7.83;4.17;;;8.30;66.30;;;7.49;55.60;98667.50;5077194;28;20420;-82
2021/04/02 06:05:24;;;;;;;10.50;4.82;;;8.50;65.50;;;7.51;55.68;98670.75;5079167;28;20404;-83
2021/04/02 06:07:52;;;;;;;8.70;4.32;;;8.50;65.70;;;7.26;56.61;98667.84;5088909;28;20387;-82
2021/04/02 06:10:20;;;;;;;10.73;4.03;;;8.30;66.30;;;7.08;57.31;98671.00;5092373;28;20471;-82
2021/04/02 06:12:46;;;;;;;9.07;4.80;;;8.20;67.20;;;7.06;57.49;98670.41;5088412;28;20877;-85
2021/04/02 06:15:14;;;;;;;10.18;4.80;;;8.10;67.70;;;7.28;56.92;98666.66;5079285;28;20404;-85
2021/04/02 06:18:05;;;;;;;12.50;4.30;;;8.20;67.40;;;7.22;56.91;98670.03;5078307;28;20539;-84
2021/04/02 06:20:34;;;;;;;10.15;4.88;;;8.30;67.00;;;7.33;57.21;98669.47;5077440;28;20418;-84
2021/04/02 06:23:11;;;;;;;11.93;4.57;;;8.40;66.90;;;7.15;57.36;98663.94;5077475;28;20435;-83
2021/04/02 06:25:47;;;;;;;11.97;5.10;;;8.20;67.40;;;7.46;56.58;98665.25;5077861;28;20896;-84
2021/04/02 06:28:19;;;;;;;11.70;5.00;;;8.40;67.50;;;7.63;55.95;98667.31;5076618;28;20427;-83
2021/04/02 06:30:50;;;;;;;10.20;4.40;;;8.70;66.30;;;7.52;56.71;98667.88;5077679;28;20486;-83
2021/04/02 06:33:17;;;;;;;8.80;4.88;;;8.60;66.50;;;7.21;57.62;98662.38;5077913;28;20416;-83
2021/04/02 06:35:46;;;;;;;12.52;5.40;;;8.30;67.70;;;7.15;57.99;98660.50;5077474;28;20790;-82
2021/04/02 06:38:13;;;;;;;11.27;5.07;;;8.20;68.40;;;7.34;57.67;98657.13;5077748;28;20415;-85
2021/04/02 06:40:40;;;;;;;13.40;5.78;;;8.30;68.30;;;7.48;57.44;98671.94;5067993;28;20404;-83
2021/04/02 06:43:06;;;;;;;12.70;5.82;;;8.40;68.10;;;7.75;56.37;98670.16;5081655;28;20828;-85
2021/04/02 06:45:32;;;;;;;12.00;5.33;;;8.70;67.10;;;7.65;56.73;98678.47;5076247;28;20457;-85
2021/04/02 06:48:12;;;;;;;10.33;4.70;;;8.70;66.80;;;7.17;58.11;98680.38;5076810;28;20461;-84
2021/04/02 06:50:39;;;;;;;9.27;6.00;;;8.30;67.70;;;7.34;57.89;98684.28;5077315;28;20502;-84
2021/04/02 06:53:05;;;;;;;12.60;5.53;;;8.30;68.60;;;7.48;57.31;98682.50;5076974;28;20412;-83
2021/04/02 06:55:32;;;;;;;11.70;5.10;;;8.50;67.90;;;7.50;57.34;98685.75;5080226;28;20800;-82
2021/04/02 06:58:06;;;;;;;11.67;5.63;;;8.50;67.50;;;7.43;57.50;98684.91;5080913;28;20560;-83
2021/04/02 07:00:36;;;;;;;14.37;6.60;;;8.40;68.10;;;7.57;57.23;98691.84;5080745;28;20460;-85
2021/04/02 07:03:03;;;;;;;8.07;5.32;;;8.50;68.00;;;7.65;57.29;98693.47;5082268;28;20434;-84
2021/04/02 07:05:31;;;;;;;12.52;5.93;;;8.60;67.90;;;7.37;57.49;98699.66;5066430;28;20411;-84
2021/04/02 07:08:02;;;;;;;12.10;5.72;;;8.40;67.70;;;7.47;57.15;98690.59;5082555;28;20403;-85
2021/04/02 07:10:29;;;;;;;11.45;4.13;;;8.40;68.10;;;7.32;57.71;98693.38;5081318;28;20422;-85
2021/04/02 07:12:58;;;;;;;10.95;5.45;;;8.40;67.80;;;7.57;57.03;98693.66;5063450;28;20423;-85
2021/04/02 07:15:26;;;;;;;12.65;5.97;;;8.50;67.70;;;7.82;56.47;98701.81;5083151;28;20425;-83
2021/04/02 07:17:53;;;;;;;26.38;6.13;;;8.70;67.10;;;8.00;55.77;98697.56;5084330;28;20403;-86
2021/04/02 07:20:20;;;;;;;14.73;6.30;;;9.00;66.10;;;7.91;56.30;98703.22;5082587;28;20469;-84
2021/04/02 07:22:50;;;;;;;12.30;6.60;;;8.80;66.50;;;8.32;54.97;98703.88;5084061;28;20428;-84
2021/04/02 07:25:16;;;;;;;12.07;6.47;;;9.20;65.70;;;8.62;54.27;98698.97;5083477;28;20409;-82
2021/04/02 07:27:42;;;;;;;12.85;5.88;;;9.50;64.60;;;7.96;55.74;98701.63;5082038;28;20407;-82
2021/04/02 07:30:12;;;;;;;10.80;6.27;;;9.20;64.80;;;7.94;56.31;98698.38;5079823;28;20430;-84
2021/04/02 07:32:41;;;;;;;11.15;6.32;;;8.90;66.40;;;8.39;54.99;98694.13;5079823;28;20487;-84
2021/04/02 07:35:15;;;;;;;11.70;6.90;;;9.30;65.60;;;8.68;54.37;98692.88;5079647;28;20468;-83
2021/04/02 07:37:42;;;;;;;14.13;6.93;;;9.60;64.60;;;8.25;55.59;98697.78;5079542;28;20491;-85
2021/04/02 07:40:10;;;;;;;12.00;7.40;;;9.30;64.90;;;8.28;56.07;98691.25;5082790;28;20407;-84
2021/04/02 07:42:37;;;;;;;14.87;7.73;;;9.20;66.00;;;8.59;55.19;98695.94;5083023;28;20883;-85
2021/04/02 07:45:06;;;;;;;12.02;7.13;;;9.50;65.60;;;8.84;54.35;98696.91;5080625;28;20461;-85
2021/04/02 07:47:34;;;;;;;14.65;7.70;;;9.70;64.60;;;8.59;54.60;98704.66;5084366;28;20423;-85
2021/04/02 07:50:02;;;;;;;15.50;8.45;;;9.70;64.20;;;8.07;56.14;98703.66;5090464;28;20424;-85
2021/04/02 07:52:40;;;;;;;18.33;8.20;;;9.10;66.30;;;8.35;55.74;98700.00;5078387;28;20439;-84
2021/04/02 07:55:14;;;;;;;14.67;7.90;;;9.20;66.20;;;8.69;54.88;98693.69;5081059;28;20490;-86
2021/04/02 07:58:02;;;;;;;12.98;7.70;;;9.60;65.30;;;9.01;53.77;98707.81;5081343;28;20437;-85
2021/04/02 08:00:32;;;;;;;11.52;8.38;;;9.90;63.80;;;9.21;53.22;98706.72;5085285;28;20403;-86
2021/04/02 08:03:17;;;;;;;15.68;8.57;;;10.10;62.90;;;9.37;52.67;98701.97;5096773;28;20540;-85
2021/04/02 08:06:00;;;;;;;14.32;7.38;;;10.30;62.30;;;8.81;54.40;98707.84;5083814;28;20530;-85
2021/04/02 08:08:37;;;;;;;14.77;8.52;;;9.80;63.80;;;8.45;55.41;98709.16;5081790;28;20417;-84
2021/04/02 08:11:13;;;;;;;20.53;10.40;;;9.60;64.50;;;8.54;55.57;98710.56;5080095;28;20495;-84
2021/04/02 08:13:48;;;;;;;14.73;8.13;;;9.40;65.80;;;9.07;54.08;98706.97;5081184;28;20735;-81
2021/04/02 08:16:46;;;;;;;10.82;5.68;;;9.90;65.50;;;8.48;55.35;98708.75;5079290;28;20410;-86
2021/04/02 08:19:24;;;;;;;10.52;5.40;;;9.70;64.40;;;8.16;56.89;98710.34;5079232;28;20419;-82
2021/04/02 08:21:55;;;;;;;11.10;7.75;;;9.20;66.50;;;8.36;56.47;98702.44;5080269;28;20435;-84
2021/04/02 08:24:24;;;;;;;12.48;6.40;;;9.20;67.00;;;8.24;56.27;98708.53;5078047;28;20484;-83
2021/04/02 08:26:52;;;;;;;18.23;8.98;;;9.40;66.00;;;8.59;55.99;98703.84;5077660;28;20403;-82
2021/04/02 08:29:20;;;;;;;12.18;8.55;;;9.50;66.50;;;8.49;56.25;98699.78;5076470;28;20407;-83
2021/04/02 08:31:50;;;;;;;15.23;8.65;;;9.40;66.30;;;8.72;55.61;98695.91;5079865;28;20411;-84
2021/04/02 08:34:20;;;;;;;12.52;7.90;;;9.70;65.80;;;9.02;55.14;98699.66;5078182;28;20566;-84
2021/04/02 08:36:48;;;;;;;15.77;9.13;;;9.90;65.30;;;9.50;53.39;98697.44;5079275;28;20503;-84
2021/04/02 08:39:17;;;;;;;14.38;9.48;;;10.30;63.90;;;9.83;52.77;98697.25;5078080;28;20454;-83
2021/04/02 08:41:44;;;;;;;13.90;8.80;;;10.70;62.70;;;10.10;51.70;98703.94;5078143;28;20391;-84
2021/04/02 08:44:10;;;;;;;16.80;9.45;;;11.00;61.40;;;10.19;51.41;98703.72;5061230;28;20419;-85
2021/04/02 08:46:41;;;;;;;14.02;8.88;;;11.10;60.70;;;9.31;53.98;98712.38;5080044;28;20408;-85
2021/04/02 08:49:09;;;;;;;19.27;10.52;;;10.40;63.10;;;9.21;54.45;98703.25;5078715;28;20423;-84
2021/04/02 08:51:36;;;;;;;15.65;9.52;;;10.10;64.50;;;9.03;55.19;98703.13;5079184;28;20396;-84
2021/04/02 08:54:04;;;;;;;15.70;9.10;;;10.00;64.70;;;8.97;55.54;98707.41;5077446;28;20492;-83
2021/04/02 08:56:32;;;;;;;14.23;10.23;;;9.90;65.40;;;8.96;55.71;98705.78;5077697;28;20425;-84
2021/04/02 08:59:01;;;;;;;17.52;10.43;;;9.80;66.10;;;9.14;55.04;98702.47;5080151;28;20476;-84
2021/04/02 09:01:28;;;;;;;14.90;10.07;;;9.90;65.90;;;9.64;53.20;98693.69;5079603;28;20400;-85
2021/04/02 09:03:55;;;;;;;17.55;10.52;;;10.50;63.70;;;9.91;53.07;98698.81;5079672;28;20423;-83
2021/04/02 09:06:25;;;;;;;13.40;10.38;;;10.70;62.90;;;10.13;51.90;98700.06;5080931;28;20430;-85
2021/04/02 09:08:51;;;;;;;16.83;10.57;;;11.00;61.40;;;10.36;51.45;98694.22;5060839;28;20694;-82
2021/04/02 09:11:17;;;;;;;16.95;9.80;;;11.20;61.00;;;9.59;53.50;98698.81;5079153;28;20506;-86
2021/04/02 09:13:52;;;;;;;16.30;10.50;;;10.60;62.20;;;10.13;52.42;98692.13;5065008;28;20445;-85
2021/04/02 09:16:20;;;;;;;18.88;9.52;;;10.90;62.30;;;9.25;54.28;98685.97;5086839;28;20473;-85
2021/04/02 09:18:49;;;;;;;21.10;12.50;;;10.40;63.10;;;9.30;54.71;98692.25;5067276;28;20451;-84
2021/04/02 09:21:18;;;;;;;32.83;13.27;;;10.20;64.80;;;9.49;54.10;98687.88;5084628;28;20404;-85
2021/04/02 09:24:20;;;;;;;17.58;10.43;;;10.40;65.20;;;9.33;54.58;98686.53;5081555;28;20423;-90
2021/04/02 09:26:46;;;;;;;17.73;11.13;;;10.30;64.20;;;9.60;53.84;98691.69;5071333;28;20412;-85
2021/04/02 09:29:19;;;;;;;18.67;10.85;;;10.40;64.00;;;9.68;53.38;98688.78;5064920;28;20683;-91
2021/04/02 09:31:46;;;;;;;13.13;9.52;;;10.60;63.30;;;9.91;53.03;98689.03;5080063;28;20419;-86
2021/04/02 09:34:21;;;;;;;17.58;9.93;;;10.70;63.10;;;10.05;52.48;98693.22;5061014;28;20752;-83
2021/04/02 09:36:49;;;;;;;15.75;10.15;;;11.00;61.80;;;9.98;52.65;98689.81;5060123;28;20698;-83
2021/04/02 09:39:21;;;;;;;16.52;10.70;;;10.90;62.00;;;10.03;52.49;98697.91;5078554;28;20894;-82
2021/04/02 09:41:56;;;;;;;17.05;10.13;;;10.90;62.10;;;10.31;51.34;98696.69;5066020;28;20718;-82
2021/04/02 09:44:39;;;;;;;13.88;9.95;;;11.20;60.70;;;10.45;50.51;98698.16;5082475;28;20465;-82
2021/04/02 09:47:09;;;;;;;16.80;10.88;;;11.30;59.40;;;10.64;50.61;98696.38;5079365;28;20670;-82
2021/04/02 09:49:37;;;;;;;15.88;10.35;;;11.50;59.70;;;11.01;49.96;98695.38;5089170;28;20467;-83
2021/04/02 09:52:05;;;;;;;17.52;11.15;;;11.70;59.40;;;10.75;50.08;98698.31;5090671;28;20453;-82
2021/04/02 09:54:32;;;;;;;17.08;10.90;;;11.60;59.20;;;10.69;50.09;98697.34;5092401;28;20462;-82
2021/04/02 09:57:09;;;;;;;21.50;10.13;;;11.60;58.80;;;10.75;49.86;98700.97;5083517;28;20420;-81
2021/04/02 09:59:42;;;;;;;19.17;9.57;;;11.60;58.90;;;10.68;49.70;98702.84;5080677;28;20461;-85
2021/04/02 10:02:11;;;;;;;14.73;9.88;;;11.70;58.20;;;10.25;50.72;98697.53;5082895;28;20480;-83
2021/04/02 10:04:38;;;;;;;19.20;10.60;;;11.30;59.40;;;10.56;49.72;98699.31;5083110;28;20470;-82
2021/04/02 10:07:04;;;;;;;14.95;10.20;;;11.40;59.30;;;10.91;49.31;98697.72;5083319;28;20487;-82
2021/04/02 10:09:32;;;;;;;14.75;10.48;;;11.70;58.60;;;11.29;48.52;98699.31;5067891;28;20416;-84
2021/04/02 10:11:59;;;;;;;18.45;10.25;;;12.00;57.90;;;10.53;49.83;98684.66;5080926;28;20551;-84
2021/04/02 10:14:25;;;;;;;13.63;9.90;;;11.60;58.20;;;10.13;50.25;98692.13;5081910;28;20443;-82
2021/04/02 10:17:37;;;;;;;16.20;10.60;;;11.20;58.80;;;10.85;48.79;98690.66;5078924;28;20412;-82
2021/04/02 10:20:05;;;;;;;13.98;9.98;;;11.50;58.60;;;11.34;47.87;98681.72;5067794;28;20443;-83
2021/04/02 10:22:31;;;;;;;14.93;9.80;;;12.00;57.30;;;11.73;46.63;98676.91;5078823;28;20627;-82
2021/04/02 10:24:57;;;;;;;14.80;10.00;;;12.50;55.60;;;11.83;46.77;98693.91;5060698;28;20503;-80